Pagrindinis puslapis
METAR-TAF:

METAR-TAF

Oro uostai :

Venas, Mikronezija

platuma: 07-28N, ilguma: 151-51E, Aukštis: 3 m

Dabartinis oras

Ataskaita buvo paskelbta 30 minutes, ne 08:52 UTC
Ramus vėjas
Temperatūra 29°C
Drėgmė 74%
Slėgis 1009 hPa
Matomumas: 24.1 km
Mažai debesys ne aukštis 1200 ft
Išsisklaidę debesys ne aukštis 12000 ft
Su prošvaistėmis ne aukštis 28000 ft

METAR: PTKK 220852Z 00000KT 15SM FEW012 SCT120 BKN280 29/24 A2981 RMK SLP098 8/171 T02910244 52014

Laikas: 19:22 (09:22 UTC)

Prognozė

Ataskaita buvo paskelbta 4 valandos ir 2 minutes, ne 05:20 UTC
Prognozė galioja nuo 22 metu 06 UTC su 23 metu 06 UTC
Vėjas 6 kt nuo kintamojo kryptimis
Matomumas: 10 km
Mažai debesys ne aukštis 1000 ft
Išsisklaidę debesys ne aukštis 1600 ft
Išsisklaidę debesys ne aukštis 6000 ft
Liūtis kaimynystėje,

TAF: PTKK 220520Z 2206/2306 VRB06KT P6SM VCSH FEW010 SCT016 SCT060

Orai ataskaitas ir orų prognozės (METAR, TAF).

turimą stotys yra geltonos ir raudonos taškus žemėlapyje.

Perkelti pele per norėdami pamatyti stoties vardą.

Tada spustelėkite, norėdami matyti oro stebėjimo ir prognozės.

Norėdami pakeisti žemėlapį: spustelėkite ant žalios mygtukų su juodo kryžiaus žemyn,; žalią mygtuką su brūkšneliu, jei norite nutolinti; arba žalių rodyklių gretimoms žemėlapius.


METAR-TAF: